Time;durP1;ratioP1;P1;durP2;ratioP2;P2;SDS_P1;SDS_P2;PMS_P1;PMS_P2;Temp;Humidity;BMP_temperature;BMP_pressure;BME280_temperature;BME280_humidity;BME280_pressure;Samples;Min_cycle;Max_cycle;Signal;HPM_P1;HPM_P2
2023/09/22 00:00:34;;;;;;;4.63;3.40;;;;;;;20.67;100.00;101311.41;2099250;28;20612;-66
2023/09/22 00:01:35;;;;;;;4.90;3.70;;;;;;;20.69;100.00;101302.47;2098717;28;20461;-66
2023/09/22 00:02:35;;;;;;;4.73;3.20;;;;;;;20.70;100.00;101301.22;2097788;28;20410;-66
2023/09/22 00:03:36;;;;;;;4.97;3.43;;;;;;;20.71;100.00;101306.38;2097557;28;20211;-65
2023/09/22 00:04:37;;;;;;;4.30;2.90;;;;;;;20.73;100.00;101309.47;2097633;28;20218;-65
2023/09/22 00:05:37;;;;;;;4.63;3.07;;;;;;;20.48;100.00;101276.28;2100425;28;20214;-66
2023/09/22 00:06:38;;;;;;;4.80;3.23;;;;;;;20.78;100.00;101322.09;2105683;28;20424;-66
2023/09/22 00:07:42;;;;;;;8.97;2.97;;;;;;;20.81;100.00;101323.94;2104817;28;20634;-66
2023/09/22 00:08:43;;;;;;;5.93;4.10;;;;;;;20.82;100.00;101331.91;2097561;28;20240;-66
2023/09/22 00:09:44;;;;;;;4.53;3.40;;;;;;;20.83;100.00;101332.69;2097795;28;20422;-66
2023/09/22 00:10:45;;;;;;;4.73;3.30;;;;;;;20.84;100.00;101337.84;2097452;28;20201;-66
2023/09/22 00:11:45;;;;;;;5.47;3.30;;;;;;;20.87;100.00;101338.91;2097372;28;20191;-66
2023/09/22 00:12:46;;;;;;;4.27;3.23;;;;;;;20.87;100.00;101334.03;2097571;28;20449;-66
2023/09/22 00:13:46;;;;;;;7.27;3.53;;;;;;;20.90;100.00;101332.31;2097378;28;20218;-66
2023/09/22 00:14:47;;;;;;;8.00;3.73;;;;;;;20.93;100.00;101322.91;2096830;28;20176;-66
2023/09/22 00:15:48;;;;;;;6.30;3.70;;;;;;;20.92;100.00;101329.78;2096404;28;20181;-65
2023/09/22 00:16:48;;;;;;;8.20;3.40;;;;;;;20.92;100.00;101329.78;2097821;28;20188;-65
2023/09/22 00:17:49;;;;;;;10.70;3.77;;;;;;;20.94;100.00;101332.91;2106094;28;20187;-66
2023/09/22 00:18:49;;;;;;;6.07;3.53;;;;;;;20.94;100.00;101344.94;2105567;28;20186;-66
2023/09/22 00:19:50;;;;;;;5.70;3.50;;;;;;;20.93;100.00;101345.44;2105796;28;20272;-66
2023/09/22 00:20:50;;;;;;;7.30;2.53;;;;;;;20.93;100.00;101342.63;2100429;28;20188;-66
2023/09/22 00:21:51;;;;;;;4.70;3.20;;;;;;;20.92;100.00;101349.50;2100897;28;20327;-66
2023/09/22 00:22:52;;;;;;;6.60;3.07;;;;;;;20.92;100.00;101347.47;2102826;28;20188;-66
2023/09/22 00:23:52;;;;;;;3.87;3.10;;;;;;;20.89;100.00;101345.66;2096972;28;20604;-66
2023/09/22 00:24:53;;;;;;;6.60;3.77;;;;;;;20.90;100.00;101358.47;2098042;28;20179;-66
2023/09/22 00:25:53;;;;;;;5.20;3.80;;;;;;;20.87;100.00;101350.94;2105953;28;20202;-65
2023/09/22 00:26:54;;;;;;;6.20;3.93;;;;;;;20.90;100.00;101352.06;2097827;28;20202;-65
2023/09/22 00:27:54;;;;;;;5.57;3.80;;;;;;;20.86;100.00;101343.78;2103375;28;20191;-66
2023/09/22 00:28:56;;;;;;;4.97;2.97;;;;;;;20.81;100.00;101340.84;2105368;28;20204;-65
2023/09/22 00:29:57;;;;;;;5.60;3.63;;;;;;;20.80;100.00;101347.75;2105415;28;20244;-65
2023/09/22 00:30:57;;;;;;;6.23;3.80;;;;;;;20.79;100.00;101357.47;2104412;28;20191;-65
2023/09/22 00:31:58;;;;;;;7.03;3.47;;;;;;;20.77;100.00;101352.31;2097829;28;20171;-65
2023/09/22 00:32:59;;;;;;;5.23;3.60;;;;;;;20.77;100.00;101348.72;2098211;28;20172;-65
2023/09/22 00:34:00;;;;;;;5.90;3.70;;;;;;;20.75;100.00;101340.75;2106011;28;20202;-66
2023/09/22 00:35:01;;;;;;;5.47;3.40;;;;;;;20.70;100.00;101341.44;2097356;28;20227;-65
2023/09/22 00:36:02;;;;;;;4.87;3.63;;;;;;;19.97;100.00;101224.34;2104341;28;20179;-66
2023/09/22 00:37:03;;;;;;;6.27;3.57;;;;;;;20.70;100.00;101354.72;2105245;28;20190;-66
2023/09/22 00:38:03;;;;;;;6.63;4.00;;;;;;;20.69;100.00;101356.00;2100796;28;20184;-65
2023/09/22 00:39:04;;;;;;;5.90;3.83;;;;;;;20.69;100.00;101347.53;2097028;28;20198;-66
2023/09/22 00:40:05;;;;;;;6.43;3.73;;;;;;;20.68;100.00;101341.13;2099932;28;20648;-65
2023/09/22 00:41:06;;;;;;;6.43;3.60;;;;;;;20.60;100.00;101342.78;2105093;28;20339;-66
2023/09/22 00:42:09;;;;;;;6.23;3.50;;;;;;;20.59;100.00;101334.81;2104976;28;20228;-66
2023/09/22 00:43:11;;;;;;;6.40;3.57;;;;;;;20.49;100.00;101338.97;2096953;28;20176;-66
2023/09/22 00:44:11;;;;;;;5.47;3.67;;;;;;;20.55;100.00;101348.31;2105311;28;20220;-66
2023/09/22 00:45:14;;;;;;;7.77;3.40;;;;;;;20.56;100.00;101349.84;2105487;28;20206;-66
2023/09/22 00:46:21;;;;;;;7.53;4.00;;;;;;;20.57;100.00;101345.78;2102113;28;20192;-65
2023/09/22 00:47:22;;;;;;;5.40;3.90;;;;;;;20.55;100.00;101340.66;2097122;28;20207;-65
2023/09/22 00:48:30;;;;;;;5.27;3.40;;;;;;;20.52;100.00;101335.97;2097402;28;20693;-65
2023/09/22 00:49:31;;;;;;;6.03;3.57;;;;;;;20.16;100.00;101291.25;2097125;28;20730;-66
2023/09/22 00:50:32;;;;;;;7.90;3.50;;;;;;;20.50;100.00;101337.72;2100058;28;20194;-65
2023/09/22 00:51:33;;;;;;;5.87;3.47;;;;;;;20.49;100.00;101330.53;2103007;28;20175;-66
2023/09/22 00:52:34;;;;;;;5.20;3.40;;;;;;;20.52;100.00;101332.38;2097035;28;20175;-65
2023/09/22 00:53:38;;;;;;;5.40;3.77;;;;;;;20.57;100.00;101349.38;2097358;28;20672;-65
2023/09/22 00:54:40;;;;;;;6.03;3.30;;;;;;;20.42;100.00;101323.22;2104322;28;20182;-65
2023/09/22 00:55:40;;;;;;;4.63;3.10;;;;;;;20.61;100.00;101337.91;2098044;28;20230;-66
2023/09/22 00:56:41;;;;;;;5.23;3.40;;;;;;;20.62;100.00;101331.81;2103975;28;20182;-66
2023/09/22 00:57:41;;;;;;;7.23;3.67;;;;;;;20.64;100.00;101331.31;2098071;28;20207;-65
2023/09/22 00:58:42;;;;;;;4.27;3.10;;;;;;;20.56;100.00;101328.09;2100778;28;20199;-65
2023/09/22 00:59:45;;;;;;;5.53;3.20;;;;;;;20.67;100.00;101338.81;2101832;28;20672;-65
2023/09/22 01:00:47;;;;;;;5.60;3.60;;;;;;;20.66;100.00;101338.03;2099343;28;20270;-65
2023/09/22 01:01:47;;;;;;;5.00;3.13;;;;;;;20.68;100.00;101346.00;2104611;28;20243;-65
2023/09/22 01:02:48;;;;;;;8.40;3.27;;;;;;;20.69;100.00;101337.06;2104568;28;20171;-65
2023/09/22 01:03:51;;;;;;;8.20;3.50;;;;;;;20.48;100.00;101300.81;2105785;28;20193;-65
2023/09/22 01:04:51;;;;;;;5.67;3.13;;;;;;;20.72;100.00;101336.09;2097647;28;20282;-65
2023/09/22 01:05:52;;;;;;;5.40;3.73;;;;;;;20.74;100.00;101332.78;2096547;28;20223;-65
2023/09/22 01:06:53;;;;;;;5.13;3.40;;;;;;;20.65;100.00;101311.13;2099324;28;20198;-65
2023/09/22 01:07:53;;;;;;;4.53;3.60;;;;;;;20.75;100.00;101325.88;2095944;28;20274;-65
2023/09/22 01:08:54;;;;;;;5.37;3.20;;;;;;;20.76;100.00;101336.69;2100168;28;20187;-65
2023/09/22 01:09:54;;;;;;;4.70;3.23;;;;;;;20.78;100.00;101333.38;2104352;28;20175;-65
2023/09/22 01:10:56;;;;;;;6.73;3.10;;;;;;;20.77;100.00;101332.59;2097699;28;20653;-65
2023/09/22 01:11:56;;;;;;;6.87;3.60;;;;;;;20.75;100.00;101321.03;2104535;28;20289;-65
2023/09/22 01:12:57;;;;;;;4.80;3.30;;;;;;;20.79;100.00;101326.47;2104557;28;20199;-65
2023/09/22 01:13:57;;;;;;;5.53;3.40;;;;;;;20.80;100.00;101325.22;2097215;28;20633;-65
2023/09/22 01:14:58;;;;;;;5.17;3.30;;;;;;;20.80;100.00;101325.22;2096831;28;20212;-65
2023/09/22 01:15:58;;;;;;;4.23;2.90;;;;;;;20.81;100.00;101318.31;2101418;28;20612;-65
2023/09/22 01:16:59;;;;;;;6.53;3.23;;;;;;;20.82;100.00;101319.88;2101910;28;20265;-65
2023/09/22 01:17:59;;;;;;;6.10;3.27;;;;;;;20.82;100.00;101319.88;2098189;28;20175;-65
2023/09/22 01:18:59;;;;;;;4.67;3.23;;;;;;;20.84;100.00;101325.78;2096739;28;20270;-65
2023/09/22 01:20:00;;;;;;;4.87;3.30;;;;;;;20.84;100.00;101320.94;2097217;28;20187;-65
2023/09/22 01:21:00;;;;;;;4.97;3.43;;;;;;;20.86;100.00;101320.44;2096733;28;20695;-65
2023/09/22 01:22:01;;;;;;;7.47;3.33;;;;;;;20.87;100.00;101316.38;2096758;28;20544;-65
2023/09/22 01:23:01;;;;;;;6.17;3.40;;;;;;;20.88;100.00;101304.59;2097170;28;20564;-66
2023/09/22 01:24:04;;;;;;;4.07;3.17;;;;;;;20.76;100.00;101290.81;2096624;28;20270;-66
2023/09/22 01:25:05;;;;;;;4.73;3.70;;;;;;;20.86;100.00;101300.72;2100237;28;20198;-65
2023/09/22 01:26:05;;;;;;;5.30;3.77;;;;;;;20.82;100.00;101286.84;2101649;28;20460;-65
2023/09/22 01:27:05;;;;;;;4.53;3.37;;;;;;;20.89;100.00;101294.13;2096623;28;20209;-65
2023/09/22 01:28:07;;;;;;;5.43;3.33;;;;;;;20.90;100.00;101293.69;2096939;28;20183;-65
2023/09/22 01:29:08;;;;;;;7.23;3.83;;;;;;;20.92;100.00;101295.97;2105674;28;20185;-65
2023/09/22 01:30:09;;;;;;;6.57;3.80;;;;;;;20.92;100.00;101288.31;2097504;28;20471;-66
2023/09/22 01:31:11;;;;;;;4.17;3.17;;;;;;;20.92;100.00;101285.50;2096761;28;20188;-66
2023/09/22 01:32:11;;;;;;;4.50;3.40;;;;;;;20.94;100.00;101282.97;2101489;28;20561;-65
2023/09/22 01:33:11;;;;;;;4.90;3.20;;;;;;;20.87;100.00;101280.53;2101863;28;20184;-65
2023/09/22 01:34:15;;;;;;;6.40;3.37;;;;;;;20.82;100.00;101255.09;2099744;28;20667;-65
2023/09/22 01:35:16;;;;;;;4.60;3.33;;;;;;;20.67;100.00;101257.91;2105177;28;20676;-65
2023/09/22 01:36:17;;;;;;;6.07;3.70;;;;;;;20.50;100.00;101248.41;2104585;28;20552;-65
2023/09/22 01:37:19;;;;;;;5.53;3.43;;;;;;;20.69;100.00;101282.78;2104833;28;20182;-65
2023/09/22 01:38:23;;;;;;;5.63;4.00;;;;;;;20.72;100.00;101293.06;2097137;28;20637;-65
2023/09/22 01:39:24;;;;;;;5.40;3.60;;;;;;;20.74;100.00;101296.97;2105182;28;20756;-65
2023/09/22 01:40:24;;;;;;;6.13;3.70;;;;;;;20.77;100.00;101298.78;2104563;28;20627;-66
2023/09/22 01:41:26;;;;;;;6.70;3.70;;;;;;;20.81;100.00;101304.22;2100503;28;20202;-65
2023/09/22 01:42:27;;;;;;;4.73;3.40;;;;;;;20.77;100.00;101293.16;2099130;28;20671;-65
2023/09/22 01:43:28;;;;;;;4.80;3.30;;;;;;;20.84;100.00;101304.03;2100500;28;20569;-65
2023/09/22 01:44:28;;;;;;;5.70;3.37;;;;;;;20.84;100.00;101303.25;2102798;28;20249;-65
2023/09/22 01:45:29;;;;;;;11.07;3.20;;;;;;;20.85;100.00;101305.59;2097895;28;20719;-66
2023/09/22 01:46:29;;;;;;;5.07;3.40;;;;;;;20.86;100.00;101304.31;2104713;28;20174;-66
2023/09/22 01:47:32;;;;;;;5.33;3.47;;;;;;;20.86;100.00;101309.97;2096941;28;20175;-65
2023/09/22 01:48:33;;;;;;;6.37;3.40;;;;;;;20.88;100.00;101306.66;2096333;28;20191;-65
2023/09/22 01:49:33;;;;;;;5.43;3.57;;;;;;;20.88;100.00;101303.84;2096647;28;20192;-65
2023/09/22 01:50:37;;;;;;;5.20;3.63;;;;;;;20.88;100.00;101306.66;2102192;28;20179;-65
2023/09/22 01:51:38;;;;;;;5.67;3.70;;;;;;;20.63;100.00;101271.41;2105073;28;20186;-65
2023/09/22 01:52:39;;;;;;;4.43;3.37;;;;;;;20.26;100.00;101213.94;2104995;28;20197;-65
2023/09/22 01:53:40;;;;;;;4.27;3.27;;;;;;;20.84;100.00;101306.88;2105168;28;20167;-65
2023/09/22 01:54:40;;;;;;;7.63;3.70;;;;;;;20.83;100.00;101305.28;2103183;28;20652;-65
2023/09/22 01:55:41;;;;;;;5.93;3.70;;;;;;;20.64;100.00;101278.59;2096448;28;20175;-65
2023/09/22 01:56:42;;;;;;;7.30;3.73;;;;;;;20.78;100.00;101293.94;2103779;28;20266;-65
2023/09/22 01:57:43;;;;;;;6.17;3.67;;;;;;;20.81;100.00;101313.47;2097460;28;20568;-65
2023/09/22 01:58:43;;;;;;;5.47;3.33;;;;;;;20.80;100.00;101305.50;2098102;28;20192;-65
2023/09/22 01:59:43;;;;;;;4.87;3.40;;;;;;;20.79;100.00;101309.56;2104765;28;20202;-65
2023/09/22 02:00:44;;;;;;;7.70;4.07;;;;;;;20.71;100.00;101316.84;2104050;28;20195;-65
2023/09/22 02:01:45;;;;;;;4.93;3.40;;;;;;;20.78;100.00;101325.69;2104912;28;20699;-65
2023/09/22 02:02:46;;;;;;;4.70;3.37;;;;;;;20.67;100.00;101317.03;2103724;28;20168;-65
2023/09/22 02:03:46;;;;;;;5.67;3.80;;;;;;;20.74;100.00;101321.53;2096536;28;20179;-65
2023/09/22 02:04:47;;;;;;;5.10;3.40;;;;;;;20.44;100.00;101274.91;2097277;28;20179;-65
2023/09/22 02:05:47;;;;;;;6.60;3.40;;;;;;;20.65;100.00;101313.16;2103207;28;20591;-65
2023/09/22 02:06:48;;;;;;;6.17;3.87;;;;;;;20.60;100.00;101311.81;2104307;28;20193;-65
2023/09/22 02:07:49;;;;;;;6.63;3.70;;;;;;;20.59;100.00;101301.03;2101500;28;20285;-65
2023/09/22 02:08:49;;;;;;;7.10;3.67;;;;;;;20.61;100.00;101309.75;2104996;28;20191;-65
2023/09/22 02:09:50;;;;;;;5.07;3.77;;;;;;;20.62;100.00;101316.97;2101928;28;20667;-65
2023/09/22 02:10:51;;;;;;;8.30;3.70;;;;;;;20.61;100.00;101315.38;2098021;28;20199;-65
2023/09/22 02:11:51;;;;;;;5.10;3.63;;;;;;;20.61;100.00;101318.19;2097100;28;20180;-65
2023/09/22 02:12:52;;;;;;;5.27;3.60;;;;;;;20.61;100.00;101313.34;2105706;28;20255;-65
2023/09/22 02:13:52;;;;;;;5.33;3.70;;;;;;;20.54;100.00;101301.69;2105663;28;20228;-65
2023/09/22 02:14:53;;;;;;;8.60;3.80;;;;;;;20.62;100.00;101320.53;2100097;28;20226;-65
2023/09/22 02:15:54;;;;;;;5.53;3.90;;;;;;;20.59;100.00;101321.53;2103302;28;20204;-65
2023/09/22 02:16:54;;;;;;;6.77;3.83;;;;;;;20.63;100.00;101324.91;2102667;28;20551;-65
2023/09/22 02:17:55;;;;;;;7.37;3.67;;;;;;;20.63;100.00;101319.28;2098287;28;20195;-65
2023/09/22 02:18:56;;;;;;;8.77;3.80;;;;;;;20.23;100.00;101259.94;2098022;28;20174;-65
2023/09/22 02:19:57;;;;;;;4.77;3.50;;;;;;;20.63;100.00;101322.09;2099061;28;20168;-65
2023/09/22 02:20:58;;;;;;;6.73;3.87;;;;;;;20.59;100.00;101306.66;2106930;28;20259;-65
2023/09/22 02:21:58;;;;;;;7.53;3.97;;;;;;;20.40;100.00;101277.91;2106498;28;20221;-65
2023/09/22 02:22:59;;;;;;;6.07;3.47;;;;;;;20.56;100.00;101294.31;2106414;28;20186;-65
2023/09/22 02:24:00;;;;;;;4.70;3.63;;;;;;;20.56;100.00;101287.91;2100561;28;20274;-65
2023/09/22 02:25:02;;;;;;;5.60;4.20;;;;;;;20.55;100.00;101292.78;2102610;28;20229;-65
2023/09/22 02:26:06;;;;;;;8.07;4.03;;;;;;;20.52;100.00;101290.91;2102736;28;20278;-65
2023/09/22 02:27:06;;;;;;;5.07;3.60;;;;;;;20.51;100.00;101302.66;2099136;28;20339;-65
2023/09/22 02:28:07;;;;;;;5.90;3.63;;;;;;;20.48;100.00;101298.81;2098069;28;20171;-65
2023/09/22 02:29:07;;;;;;;5.50;3.63;;;;;;;20.48;100.00;101304.44;2098181;28;20686;-65
2023/09/22 02:30:10;;;;;;;6.43;4.00;;;;;;;20.50;100.00;101303.91;2098467;28;20203;-65
2023/09/22 02:31:10;;;;;;;7.47;4.07;;;;;;;20.52;100.00;101302.19;2097865;28;20218;-65
2023/09/22 02:32:11;;;;;;;5.60;3.93;;;;;;;20.55;100.00;101306.06;2102965;28;20309;-65
2023/09/22 02:33:11;;;;;;;5.20;3.33;;;;;;;20.56;100.00;101316.84;2100581;28;20200;-65
2023/09/22 02:34:13;;;;;;;5.07;3.40;;;;;;;20.40;100.00;101294.81;2101976;28;20244;-65
2023/09/22 02:35:13;;;;;;;4.77;3.50;;;;;;;20.56;100.00;101307.63;2097240;28;20261;-65
2023/09/22 02:36:16;;;;;;;6.30;3.57;;;;;;;20.48;100.00;101307.25;2097470;28;20288;-65
2023/09/22 02:37:17;;;;;;;7.07;3.50;;;;;;;20.45;100.00;101308.19;2099188;28;20679;-65
2023/09/22 02:38:17;;;;;;;4.80;3.30;;;;;;;20.39;100.00;101300.91;2105496;28;20810;-65
2023/09/22 02:39:18;;;;;;;5.87;4.40;;;;;;;20.35;100.00;101292.66;2104985;28;20187;-65
2023/09/22 02:40:18;;;;;;;5.00;3.93;;;;;;;20.36;100.00;101297.03;2105095;28;20607;-65
2023/09/22 02:41:19;;;;;;;4.93;3.83;;;;;;;20.38;100.00;101302.16;2106675;28;20187;-65
2023/09/22 02:42:20;;;;;;;6.30;4.00;;;;;;;20.30;100.00;101287.69;2101110;28;20752;-65
2023/09/22 02:43:20;;;;;;;5.93;4.03;;;;;;;20.38;100.00;101296.53;2102071;28;20807;-65
2023/09/22 02:44:21;;;;;;;5.90;3.60;;;;;;;20.40;100.00;101294.00;2106139;28;20198;-65
2023/09/22 02:45:22;;;;;;;7.27;4.23;;;;;;;20.41;100.00;101284.31;2106051;28;20183;-65
2023/09/22 02:46:23;;;;;;;8.27;3.77;;;;;;;20.40;100.00;101283.53;2105681;28;20167;-65
2023/09/22 02:47:27;;;;;;;6.07;4.00;;;;;;;20.36;100.00;101279.38;2098583;28;20413;-65
2023/09/22 02:48:27;;;;;;;5.90;3.77;;;;;;;20.36;100.00;101290.63;2106625;28;20175;-65
2023/09/22 02:49:30;;;;;;;8.77;3.93;;;;;;;20.35;100.00;101281.41;2106442;28;20190;-65
2023/09/22 02:50:30;;;;;;;4.97;3.37;;;;;;;20.36;100.00;101277.31;2106287;28;20182;-65
2023/09/22 02:51:31;;;;;;;6.37;4.10;;;;;;;20.38;100.00;101276.84;2101342;28;20199;-65
2023/09/22 02:52:33;;;;;;;7.23;4.10;;;;;;;20.34;100.00;101277.03;2101485;28;20203;-65
2023/09/22 02:53:33;;;;;;;5.50;3.30;;;;;;;20.34;100.00;101277.03;2103507;28;20202;-65
2023/09/22 02:54:34;;;;;;;5.93;4.57;;;;;;;20.32;100.00;101290.78;2098208;28;20175;-65
2023/09/22 02:55:38;;;;;;;5.30;3.97;;;;;;;20.34;100.00;101298.75;2098250;28;20606;-66
2023/09/22 02:56:39;;;;;;;7.57;4.27;;;;;;;20.35;100.00;101300.31;2106922;28;20167;-65
2023/09/22 02:57:42;;;;;;;10.50;4.00;;;;;;;20.35;100.00;101301.09;2097756;28;20197;-65
2023/09/22 02:58:45;;;;;;;6.33;4.33;;;;;;;19.84;100.00;101210.56;2105551;28;20179;-65
2023/09/22 02:59:45;;;;;;;5.37;3.80;;;;;;;20.34;100.00;101288.28;2106271;28;20675;-65
2023/09/22 03:00:46;;;;;;;4.60;3.50;;;;;;;20.34;100.00;101295.94;2100219;28;20572;-65
2023/09/22 03:01:47;;;;;;;8.00;4.00;;;;;;;20.28;100.00;101298.69;2098202;28;20241;-65
2023/09/22 03:02:48;;;;;;;6.43;4.47;;;;;;;20.26;100.00;101292.72;2098141;28;20278;-65
2023/09/22 03:03:48;;;;;;;8.87;4.73;;;;;;;20.24;100.00;101306.53;2097996;28;20207;-65
2023/09/22 03:04:49;;;;;;;11.93;4.87;;;;;;;20.25;100.00;101304.47;2098210;28;20174;-65
2023/09/22 03:05:49;;;;;;;8.23;3.90;;;;;;;20.19;100.00;101297.97;2098120;28;20478;-65
2023/09/22 03:06:50;;;;;;;6.93;4.13;;;;;;;20.24;100.00;101294.47;2105823;28;20195;-65
2023/09/22 03:07:51;;;;;;;8.10;3.87;;;;;;;20.21;100.00;101306.72;2099396;28;20262;-65
2023/09/22 03:08:51;;;;;;;6.77;4.00;;;;;;;20.18;100.00;101294.38;2098232;28;20443;-65
2023/09/22 03:09:52;;;;;;;5.70;4.13;;;;;;;20.15;100.00;101288.91;2097678;28;20199;-65
2023/09/22 03:10:52;;;;;;;9.53;4.00;;;;;;;20.07;100.00;101287.72;2097892;28;20218;-65
2023/09/22 03:11:53;;;;;;;8.63;4.60;;;;;;;20.04;100.00;101283.84;2097612;28;20179;-65
2023/09/22 03:13:12;;;;;;;4.30;3.80;;;;;;;20.09;100.00;101288.03;2098281;28;20657;-65
2023/09/22 03:14:12;;;;;;;9.07;4.37;;;;;;;20.09;100.00;101291.66;2097945;28;20175;-65
2023/09/22 03:15:13;;;;;;;14.00;4.30;;;;;;;20.11;100.00;101293.97;2097542;28;20413;-65
2023/09/22 03:16:13;;;;;;;6.17;3.77;;;;;;;20.13;100.00;101299.88;2098066;28;20234;-65
2023/09/22 03:17:14;;;;;;;7.20;4.10;;;;;;;20.14;100.00;101296.59;2098374;28;20194;-65
2023/09/22 03:18:14;;;;;;;9.20;4.47;;;;;;;20.16;100.00;101298.94;2105178;28;20260;-65
2023/09/22 03:19:15;;;;;;;8.90;3.90;;;;;;;20.14;100.00;101298.63;2100035;28;20199;-65
2023/09/22 03:20:17;;;;;;;7.47;4.30;;;;;;;19.97;100.00;101263.75;2097500;28;20263;-65
2023/09/22 03:21:22;;;;;;;5.33;3.37;;;;;;;20.14;100.00;101288.16;2101135;28;20210;-65
2023/09/22 03:22:22;;;;;;;4.63;3.53;;;;;;;20.13;100.00;101286.63;2106352;28;20444;-65
2023/09/22 03:23:24;;;;;;;5.77;3.80;;;;;;;20.14;100.00;101290.97;2105424;28;20774;-65
2023/09/22 03:24:24;;;;;;;8.63;4.07;;;;;;;20.16;100.00;101294.06;2105528;28;20659;-66
2023/09/22 03:25:25;;;;;;;6.60;3.60;;;;;;;20.15;100.00;101288.91;2105577;28;20265;-65
2023/09/22 03:26:25;;;;;;;8.07;3.73;;;;;;;20.19;100.00;101300.78;2098442;28;20559;-65
2023/09/22 03:27:25;;;;;;;5.40;3.63;;;;;;;20.20;100.00;101299.50;2104335;28;20175;-66
2023/09/22 03:28:26;;;;;;;9.43;3.93;;;;;;;20.20;100.00;101303.13;2100994;28;20196;-66
2023/09/22 03:29:27;;;;;;;6.60;3.93;;;;;;;20.20;100.00;101297.47;2097993;28;20184;-66
2023/09/22 03:30:27;;;;;;;7.87;4.00;;;;;;;20.22;100.00;101288.56;2097329;28;20210;-66
2023/09/22 03:31:27;;;;;;;8.00;3.97;;;;;;;20.20;100.00;101294.66;2097647;28;20174;-66
2023/09/22 03:32:29;;;;;;;7.30;3.80;;;;;;;20.21;100.00;101287.78;2104607;28;20648;-65
2023/09/22 03:33:30;;;;;;;5.00;3.33;;;;;;;20.20;100.00;101282.63;2100030;28;20219;-69
2023/09/22 03:34:30;;;;;;;6.57;3.80;;;;;;;20.16;100.00;101288.44;2097519;28;20215;-69
2023/09/22 03:35:31;;;;;;;7.13;4.23;;;;;;;20.12;100.00;101285.03;2103896;28;20193;-68
2023/09/22 03:36:32;;;;;;;6.67;4.23;;;;;;;20.14;100.00;101284.56;2105960;28;20274;-66
2023/09/22 03:37:33;;;;;;;8.60;3.77;;;;;;;20.15;100.00;101289.72;2101541;28;20187;-66
2023/09/22 03:38:33;;;;;;;5.67;3.53;;;;;;;20.17;100.00;101294.84;2101383;28;20193;-66
2023/09/22 03:39:34;;;;;;;7.20;3.67;;;;;;;20.17;100.00;101298.44;2105896;28;20167;-66
2023/09/22 03:40:40;;;;;;;6.40;3.90;;;;;;;20.19;100.00;101303.59;2104625;28;20163;-66
2023/09/22 03:41:42;;;;;;;5.07;3.67;;;;;;;20.17;100.00;101297.69;2097821;28;20614;-66
2023/09/22 03:42:43;;;;;;;6.73;3.87;;;;;;;20.16;100.00;101298.94;2106505;28;20167;-66
2023/09/22 03:43:44;;;;;;;8.97;4.10;;;;;;;20.17;100.00;101306.13;2097803;28;20680;-66
2023/09/22 03:44:45;;;;;;;5.37;3.80;;;;;;;20.17;100.00;101304.06;2104061;28;20179;-66
2023/09/22 03:45:45;;;;;;;5.33;3.60;;;;;;;20.20;100.00;101322.03;2105619;28;20215;-66
2023/09/22 03:46:46;;;;;;;7.43;3.57;;;;;;;20.18;100.00;101314.09;2101369;28;20202;-66
2023/09/22 03:47:47;;;;;;;6.07;3.30;;;;;;;20.18;100.00;101302.03;2100952;28;20199;-66
2023/09/22 03:48:48;;;;;;;5.23;3.20;;;;;;;20.21;100.00;101301.84;2105305;28;20240;-66
2023/09/22 03:49:48;;;;;;;6.73;3.70;;;;;;;20.18;100.00;101308.47;2097564;28;20172;-66
2023/09/22 03:50:49;;;;;;;6.30;3.47;;;;;;;20.15;100.00;101305.81;2105586;28;20461;-66
2023/09/22 03:51:49;;;;;;;5.83;3.53;;;;;;;20.15;100.00;101319.88;2098076;28;20171;-66
2023/09/22 03:52:50;;;;;;;5.60;3.40;;;;;;;19.97;100.00;101295.47;2097905;28;20199;-66
2023/09/22 03:53:51;;;;;;;4.57;3.40;;;;;;;20.13;100.00;101337.25;2103854;28;20182;-67
2023/09/22 03:54:51;;;;;;;5.77;3.57;;;;;;;20.10;100.00;101335.41;2100834;28;20477;-66
2023/09/22 03:55:52;;;;;;;4.10;2.90;;;;;;;20.15;100.00;101334.72;2101297;28;20182;-66
2023/09/22 03:56:52;;;;;;;5.77;3.30;;;;;;;20.15;100.00;101331.91;2105875;28;20211;-66
2023/09/22 03:57:53;;;;;;;4.13;2.67;;;;;;;20.15;100.00;101323.47;2104446;28;20179;-66
2023/09/22 03:58:53;;;;;;;4.87;3.00;;;;;;;20.11;100.00;101313.69;2097849;28;20187;-66
2023/09/22 03:59:54;;;;;;;5.13;2.93;;;;;;;20.12;100.00;101318.03;2097806;28;20572;-66
2023/09/22 04:01:09;;;;;;;4.07;3.00;;;;;;;20.16;100.00;101315.81;2097169;28;20191;-66
2023/09/22 04:02:09;;;;;;;5.67;3.37;;;;;;;20.12;100.00;101315.97;2097899;28;20190;-66
2023/09/22 04:03:11;;;;;;;4.33;3.07;;;;;;;20.10;100.00;101315.69;2096975;28;20437;-66
2023/09/22 04:04:11;;;;;;;4.43;2.87;;;;;;;20.07;100.00;101315.84;2103036;28;20198;-66
2023/09/22 04:05:12;;;;;;;4.53;3.07;;;;;;;20.01;100.00;101326.22;2100852;28;20430;-66
2023/09/22 04:06:13;;;;;;;5.00;3.37;;;;;;;20.00;100.00;101316.25;2097313;28;20586;-65
2023/09/22 04:07:14;;;;;;;6.23;3.07;;;;;;;19.98;100.00;101322.34;2097540;28;20225;-65
2023/09/22 04:08:16;;;;;;;5.27;3.80;;;;;;;19.96;100.00;101324.06;2097280;28;20714;-66
2023/09/22 04:09:17;;;;;;;5.90;4.00;;;;;;;19.94;100.00;101329.38;2097068;28;20417;-65
2023/09/22 04:10:19;;;;;;;5.30;3.73;;;;;;;19.93;100.00;101320.19;2097632;28;20406;-65
2023/09/22 04:11:20;;;;;;;4.77;3.60;;;;;;;19.95;100.00;101325.34;2097568;28;20213;-66
2023/09/22 04:12:20;;;;;;;5.53;3.90;;;;;;;19.95;100.00;101330.97;2104410;28;20539;-66
2023/09/22 04:13:21;;;;;;;5.17;3.00;;;;;;;19.96;100.00;101340.97;2099985;28;20174;-65
2023/09/22 04:14:21;;;;;;;6.70;3.80;;;;;;;19.96;100.00;101349.41;2097506;28;20500;-65
2023/09/22 04:15:23;;;;;;;5.13;3.60;;;;;;;19.96;100.00;101336.09;2100182;28;20186;-66
2023/09/22 04:16:23;;;;;;;5.40;3.30;;;;;;;19.96;100.00;101336.09;2105504;28;20174;-66
2023/09/22 04:17:24;;;;;;;5.60;3.60;;;;;;;19.96;100.00;101330.47;2103847;28;20424;-66
2023/09/22 04:18:29;;;;;;;5.53;3.57;;;;;;;19.95;100.00;101326.09;2104039;28;20175;-66
2023/09/22 04:19:33;;;;;;;4.37;3.20;;;;;;;19.95;100.00;101314.09;2099429;28;20194;-66
2023/09/22 04:20:37;;;;;;;5.63;3.70;;;;;;;19.94;100.00;101326.56;2097424;28;20450;-68
2023/09/22 04:21:47;;;;;;;6.27;4.10;;;;;;;19.91;100.00;101328.31;2104470;28;20436;-68
2023/09/22 04:22:47;;;;;;;5.03;3.70;;;;;;;19.89;100.00;101327.22;2105880;28;20433;-68
2023/09/22 04:23:57;;;;;;;5.27;3.73;;;;;;;19.89;100.00;101332.84;2099778;28;20545;-68
2023/09/22 04:25:01;;;;;;;5.37;3.90;;;;;;;19.83;100.00;101321.50;2102761;28;20183;-67
2023/09/22 04:26:09;;;;;;;4.83;3.50;;;;;;;19.92;100.00;101338.34;2099686;28;20869;-68
2023/09/22 04:27:11;;;;;;;11.27;4.13;;;;;;;19.93;100.00;101328.63;2099282;28;20418;-68
2023/09/22 04:28:12;;;;;;;6.77;4.20;;;;;;;19.95;100.00;101336.59;2097245;28;20522;-68
2023/09/22 04:29:14;;;;;;;4.93;3.80;;;;;;;19.97;100.00;101339.69;2097514;28;20495;-68
2023/09/22 04:30:16;;;;;;;7.67;3.80;;;;;;;19.97;100.00;101343.28;2097036;28;20410;-68
2023/09/22 04:31:16;;;;;;;7.27;3.90;;;;;;;19.99;100.00;101343.59;2098200;28;20475;-68
2023/09/22 04:32:18;;;;;;;6.73;4.07;;;;;;;19.99;100.00;101342.78;2105470;28;20522;-68
2023/09/22 04:33:20;;;;;;;5.73;3.87;;;;;;;20.01;100.00;101346.69;2097456;28;20192;-68
2023/09/22 04:34:20;;;;;;;5.67;3.90;;;;;;;20.02;100.00;101345.44;2100891;28;20842;-68
2023/09/22 04:35:21;;;;;;;5.83;4.17;;;;;;;19.93;100.00;101330.66;2102603;28;20481;-68
2023/09/22 04:36:21;;;;;;;5.67;3.80;;;;;;;20.02;100.00;101339.03;2105176;28;20676;-68
2023/09/22 04:37:23;;;;;;;6.57;3.67;;;;;;;19.93;100.00;101325.03;2096843;28;20214;-68
2023/09/22 04:38:24;;;;;;;6.80;4.10;;;;;;;19.79;100.00;101303.25;2099146;28;20468;-68
2023/09/22 04:39:24;;;;;;;5.20;3.73;;;;;;;19.80;100.00;101314.00;2099200;28;20418;-68
2023/09/22 04:40:29;;;;;;;5.47;3.63;;;;;;;20.06;100.00;101334.00;2104415;28;20714;-68
2023/09/22 04:41:29;;;;;;;5.43;3.97;;;;;;;20.06;100.00;101343.22;2097725;28;20172;-68